sensor_id;sensor_type;location;lat;lon;timestamp;P1;durP1;ratioP1;P2;durP2;ratioP2
22851;SDS011;11592;45.460;9.240;2024-03-02T00:01:48;17.27;;;11.65;;
22851;SDS011;11592;45.460;9.240;2024-03-02T00:04:16;19.15;;;11.80;;
22851;SDS011;11592;45.460;9.240;2024-03-02T00:06:43;18.25;;;11.30;;
22851;SDS011;11592;45.460;9.240;2024-03-02T00:09:10;19.08;;;13.38;;
22851;SDS011;11592;45.460;9.240;2024-03-02T00:11:39;21.92;;;13.82;;
22851;SDS011;11592;45.460;9.240;2024-03-02T00:14:06;22.10;;;14.55;;
22851;SDS011;11592;45.460;9.240;2024-03-02T00:16:34;25.90;;;16.65;;
22851;SDS011;11592;45.460;9.240;2024-03-02T00:19:05;25.25;;;17.17;;
22851;SDS011;11592;45.460;9.240;2024-03-02T00:21:32;25.40;;;17.00;;
22851;SDS011;11592;45.460;9.240;2024-03-02T00:24:00;26.60;;;17.58;;
22851;SDS011;11592;45.460;9.240;2024-03-02T00:26:33;22.23;;;16.25;;
22851;SDS011;11592;45.460;9.240;2024-03-02T00:29:00;24.95;;;16.55;;
22851;SDS011;11592;45.460;9.240;2024-03-02T00:31:27;24.60;;;16.25;;
22851;SDS011;11592;45.460;9.240;2024-03-02T00:33:56;17.42;;;12.60;;
22851;SDS011;11592;45.460;9.240;2024-03-02T00:36:28;22.83;;;16.77;;
22851;SDS011;11592;45.460;9.240;2024-03-02T00:38:56;24.88;;;17.08;;
22851;SDS011;11592;45.460;9.240;2024-03-02T00:41:29;21.17;;;14.68;;
22851;SDS011;11592;45.460;9.240;2024-03-02T00:46:24;18.95;;;12.93;;
22851;SDS011;11592;45.460;9.240;2024-03-02T00:48:55;25.17;;;16.17;;
22851;SDS011;11592;45.460;9.240;2024-03-02T00:51:24;27.73;;;17.10;;
22851;SDS011;11592;45.460;9.240;2024-03-02T00:53:52;21.88;;;14.63;;
22851;SDS011;11592;45.460;9.240;2024-03-02T00:56:24;27.17;;;17.48;;
22851;SDS011;11592;45.460;9.240;2024-03-02T00:58:51;25.23;;;15.98;;
22851;SDS011;11592;45.460;9.240;2024-03-02T01:01:19;24.52;;;15.27;;
22851;SDS011;11592;45.460;9.240;2024-03-02T01:03:46;28.45;;;16.55;;
22851;SDS011;11592;45.460;9.240;2024-03-02T01:06:15;24.17;;;15.60;;
22851;SDS011;11592;45.460;9.240;2024-03-02T01:08:43;21.73;;;15.52;;
22851;SDS011;11592;45.460;9.240;2024-03-02T01:11:10;26.80;;;17.00;;
22851;SDS011;11592;45.460;9.240;2024-03-02T01:13:38;21.02;;;14.90;;
22851;SDS011;11592;45.460;9.240;2024-03-02T01:16:05;24.75;;;16.55;;
22851;SDS011;11592;45.460;9.240;2024-03-02T01:18:33;30.40;;;16.98;;
22851;SDS011;11592;45.460;9.240;2024-03-02T01:21:00;27.50;;;17.08;;
22851;SDS011;11592;45.460;9.240;2024-03-02T01:23:27;24.67;;;16.13;;
22851;SDS011;11592;45.460;9.240;2024-03-02T01:25:55;23.25;;;14.80;;
22851;SDS011;11592;45.460;9.240;2024-03-02T01:28:22;27.65;;;16.63;;
22851;SDS011;11592;45.460;9.240;2024-03-02T01:30:49;29.98;;;18.15;;
22851;SDS011;11592;45.460;9.240;2024-03-02T01:33:16;28.98;;;17.25;;
22851;SDS011;11592;45.460;9.240;2024-03-02T01:35:44;32.75;;;20.80;;
22851;SDS011;11592;45.460;9.240;2024-03-02T01:38:11;34.20;;;21.15;;
22851;SDS011;11592;45.460;9.240;2024-03-02T01:40:38;30.45;;;18.70;;
22851;SDS011;11592;45.460;9.240;2024-03-02T01:43:06;30.98;;;19.55;;
22851;SDS011;11592;45.460;9.240;2024-03-02T01:45:34;30.17;;;17.48;;
22851;SDS011;11592;45.460;9.240;2024-03-02T01:48:04;25.48;;;15.95;;
22851;SDS011;11592;45.460;9.240;2024-03-02T01:50:32;31.55;;;19.27;;
22851;SDS011;11592;45.460;9.240;2024-03-02T01:53:00;30.75;;;17.77;;
22851;SDS011;11592;45.460;9.240;2024-03-02T01:55:29;28.23;;;16.67;;
22851;SDS011;11592;45.460;9.240;2024-03-02T01:57:57;28.23;;;17.10;;
22851;SDS011;11592;45.460;9.240;2024-03-02T02:00:25;26.77;;;16.17;;
22851;SDS011;11592;45.460;9.240;2024-03-02T02:02:53;28.27;;;16.73;;
22851;SDS011;11592;45.460;9.240;2024-03-02T02:05:21;26.33;;;16.45;;
22851;SDS011;11592;45.460;9.240;2024-03-02T02:07:49;21.02;;;13.55;;
22851;SDS011;11592;45.460;9.240;2024-03-02T02:10:16;20.30;;;12.77;;
22851;SDS011;11592;45.460;9.240;2024-03-02T02:12:44;18.33;;;13.20;;
22851;SDS011;11592;45.460;9.240;2024-03-02T02:15:21;21.88;;;14.43;;
22851;SDS011;11592;45.460;9.240;2024-03-02T02:17:48;22.73;;;14.60;;
22851;SDS011;11592;45.460;9.240;2024-03-02T02:20:16;21.63;;;14.40;;
22851;SDS011;11592;45.460;9.240;2024-03-02T02:25:42;28.80;;;15.43;;
22851;SDS011;11592;45.460;9.240;2024-03-02T02:28:10;21.67;;;13.43;;
22851;SDS011;11592;45.460;9.240;2024-03-02T02:30:37;20.90;;;12.15;;
22851;SDS011;11592;45.460;9.240;2024-03-02T02:33:04;19.25;;;11.30;;
22851;SDS011;11592;45.460;9.240;2024-03-02T02:35:32;20.35;;;12.85;;
22851;SDS011;11592;45.460;9.240;2024-03-02T02:37:59;21.52;;;13.20;;
22851;SDS011;11592;45.460;9.240;2024-03-02T02:40:27;22.60;;;12.88;;
22851;SDS011;11592;45.460;9.240;2024-03-02T02:42:57;29.83;;;15.93;;
22851;SDS011;11592;45.460;9.240;2024-03-02T02:45:25;22.00;;;12.85;;
22851;SDS011;11592;45.460;9.240;2024-03-02T02:47:52;23.73;;;14.05;;
22851;SDS011;11592;45.460;9.240;2024-03-02T02:50:20;22.88;;;14.32;;
22851;SDS011;11592;45.460;9.240;2024-03-02T02:52:47;21.38;;;12.70;;
22851;SDS011;11592;45.460;9.240;2024-03-02T02:55:14;23.02;;;13.68;;
22851;SDS011;11592;45.460;9.240;2024-03-02T02:57:42;18.67;;;12.32;;
22851;SDS011;11592;45.460;9.240;2024-03-02T03:00:11;21.30;;;11.90;;
22851;SDS011;11592;45.460;9.240;2024-03-02T03:02:45;19.40;;;12.95;;
22851;SDS011;11592;45.460;9.240;2024-03-02T03:05:13;18.85;;;12.35;;
22851;SDS011;11592;45.460;9.240;2024-03-02T03:07:41;22.35;;;12.10;;
22851;SDS011;11592;45.460;9.240;2024-03-02T03:10:08;18.75;;;11.88;;
22851;SDS011;11592;45.460;9.240;2024-03-02T03:12:35;17.90;;;11.18;;
22851;SDS011;11592;45.460;9.240;2024-03-02T03:15:03;16.40;;;10.95;;
22851;SDS011;11592;45.460;9.240;2024-03-02T03:17:34;21.08;;;11.98;;
22851;SDS011;11592;45.460;9.240;2024-03-02T03:20:02;20.30;;;12.10;;
22851;SDS011;11592;45.460;9.240;2024-03-02T03:22:30;17.25;;;11.32;;
22851;SDS011;11592;45.460;9.240;2024-03-02T03:25:01;19.83;;;12.07;;
22851;SDS011;11592;45.460;9.240;2024-03-02T03:27:30;18.25;;;12.02;;
22851;SDS011;11592;45.460;9.240;2024-03-02T03:29:57;21.02;;;13.00;;
22851;SDS011;11592;45.460;9.240;2024-03-02T03:32:24;18.67;;;11.45;;
22851;SDS011;11592;45.460;9.240;2024-03-02T03:34:51;22.05;;;12.30;;
22851;SDS011;11592;45.460;9.240;2024-03-02T03:37:19;18.83;;;12.02;;
22851;SDS011;11592;45.460;9.240;2024-03-02T03:39:46;18.63;;;12.48;;
22851;SDS011;11592;45.460;9.240;2024-03-02T03:42:13;22.08;;;12.90;;
22851;SDS011;11592;45.460;9.240;2024-03-02T03:44:40;17.50;;;11.80;;
22851;SDS011;11592;45.460;9.240;2024-03-02T03:47:08;21.02;;;13.00;;
22851;SDS011;11592;45.460;9.240;2024-03-02T03:49:35;17.42;;;11.50;;
22851;SDS011;11592;45.460;9.240;2024-03-02T03:52:02;23.60;;;13.38;;
22851;SDS011;11592;45.460;9.240;2024-03-02T03:54:30;20.65;;;13.65;;
22851;SDS011;11592;45.460;9.240;2024-03-02T03:56:57;19.15;;;13.13;;
22851;SDS011;11592;45.460;9.240;2024-03-02T03:59:24;22.25;;;14.25;;
22851;SDS011;11592;45.460;9.240;2024-03-02T04:01:52;26.05;;;14.30;;
22851;SDS011;11592;45.460;9.240;2024-03-02T04:04:19;21.02;;;14.43;;
22851;SDS011;11592;45.460;9.240;2024-03-02T04:06:47;17.45;;;12.85;;
22851;SDS011;11592;45.460;9.240;2024-03-02T04:09:14;20.58;;;14.13;;
22851;SDS011;11592;45.460;9.240;2024-03-02T04:11:41;19.73;;;13.52;;
22851;SDS011;11592;45.460;9.240;2024-03-02T04:14:08;23.45;;;14.20;;
22851;SDS011;11592;45.460;9.240;2024-03-02T04:16:36;25.48;;;14.52;;
22851;SDS011;11592;45.460;9.240;2024-03-02T04:19:03;21.23;;;14.55;;
22851;SDS011;11592;45.460;9.240;2024-03-02T04:21:30;21.08;;;14.38;;
22851;SDS011;11592;45.460;9.240;2024-03-02T04:23:57;21.63;;;14.45;;
22851;SDS011;11592;45.460;9.240;2024-03-02T04:26:25;22.40;;;14.30;;
22851;SDS011;11592;45.460;9.240;2024-03-02T04:28:53;20.55;;;13.88;;
22851;SDS011;11592;45.460;9.240;2024-03-02T04:31:20;23.67;;;13.75;;
22851;SDS011;11592;45.460;9.240;2024-03-02T04:33:47;21.80;;;13.73;;
22851;SDS011;11592;45.460;9.240;2024-03-02T04:36:14;19.67;;;13.88;;
22851;SDS011;11592;45.460;9.240;2024-03-02T04:38:42;19.35;;;13.75;;
22851;SDS011;11592;45.460;9.240;2024-03-02T04:41:09;19.63;;;13.23;;
22851;SDS011;11592;45.460;9.240;2024-03-02T04:43:36;21.00;;;14.38;;
22851;SDS011;11592;45.460;9.240;2024-03-02T04:46:04;22.45;;;14.43;;
22851;SDS011;11592;45.460;9.240;2024-03-02T04:48:33;23.35;;;14.05;;
22851;SDS011;11592;45.460;9.240;2024-03-02T04:51:00;26.48;;;15.15;;
22851;SDS011;11592;45.460;9.240;2024-03-02T04:53:27;21.40;;;14.70;;
22851;SDS011;11592;45.460;9.240;2024-03-02T04:55:54;23.35;;;14.73;;
22851;SDS011;11592;45.460;9.240;2024-03-02T04:58:22;21.80;;;13.93;;
22851;SDS011;11592;45.460;9.240;2024-03-02T05:00:49;23.80;;;14.77;;
22851;SDS011;11592;45.460;9.240;2024-03-02T05:03:16;22.13;;;15.10;;
22851;SDS011;11592;45.460;9.240;2024-03-02T05:05:43;22.85;;;14.88;;
22851;SDS011;11592;45.460;9.240;2024-03-02T05:08:11;21.60;;;15.15;;
22851;SDS011;11592;45.460;9.240;2024-03-02T05:10:38;24.55;;;15.18;;
22851;SDS011;11592;45.460;9.240;2024-03-02T05:13:05;25.98;;;16.65;;
22851;SDS011;11592;45.460;9.240;2024-03-02T05:15:33;23.10;;;13.95;;
22851;SDS011;11592;45.460;9.240;2024-03-02T05:18:00;22.42;;;13.65;;
22851;SDS011;11592;45.460;9.240;2024-03-02T05:20:31;17.60;;;12.13;;
22851;SDS011;11592;45.460;9.240;2024-03-02T05:22:58;18.38;;;11.90;;
22851;SDS011;11592;45.460;9.240;2024-03-02T05:25:26;15.65;;;11.23;;
22851;SDS011;11592;45.460;9.240;2024-03-02T05:27:53;17.27;;;11.20;;
22851;SDS011;11592;45.460;9.240;2024-03-02T05:30:20;19.48;;;11.00;;
22851;SDS011;11592;45.460;9.240;2024-03-02T05:32:48;19.70;;;11.07;;
22851;SDS011;11592;45.460;9.240;2024-03-02T05:35:15;18.58;;;11.40;;
22851;SDS011;11592;45.460;9.240;2024-03-02T05:37:41;19.92;;;12.07;;
22851;SDS011;11592;45.460;9.240;2024-03-02T05:40:08;21.05;;;12.05;;
22851;SDS011;11592;45.460;9.240;2024-03-02T05:42:37;18.35;;;10.82;;
22851;SDS011;11592;45.460;9.240;2024-03-02T05:45:04;17.08;;;10.88;;
22851;SDS011;11592;45.460;9.240;2024-03-02T05:47:32;15.23;;;9.70;;
22851;SDS011;11592;45.460;9.240;2024-03-02T05:49:59;16.23;;;10.02;;
22851;SDS011;11592;45.460;9.240;2024-03-02T05:52:26;17.77;;;10.35;;
22851;SDS011;11592;45.460;9.240;2024-03-02T05:54:54;14.55;;;9.10;;
22851;SDS011;11592;45.460;9.240;2024-03-02T05:57:21;14.23;;;9.27;;
22851;SDS011;11592;45.460;9.240;2024-03-02T06:00:11;17.40;;;10.65;;
22851;SDS011;11592;45.460;9.240;2024-03-02T06:02:39;19.70;;;10.40;;
22851;SDS011;11592;45.460;9.240;2024-03-02T06:05:07;17.10;;;10.20;;
22851;SDS011;11592;45.460;9.240;2024-03-02T06:07:34;16.67;;;10.80;;
22851;SDS011;11592;45.460;9.240;2024-03-02T06:10:01;16.50;;;10.40;;
22851;SDS011;11592;45.460;9.240;2024-03-02T06:12:30;16.52;;;10.90;;
22851;SDS011;11592;45.460;9.240;2024-03-02T06:14:58;16.77;;;10.23;;
22851;SDS011;11592;45.460;9.240;2024-03-02T06:17:26;16.63;;;10.45;;
22851;SDS011;11592;45.460;9.240;2024-03-02T06:19:53;17.90;;;11.07;;
22851;SDS011;11592;45.460;9.240;2024-03-02T06:22:20;17.90;;;11.18;;
22851;SDS011;11592;45.460;9.240;2024-03-02T06:24:51;17.45;;;10.50;;
22851;SDS011;11592;45.460;9.240;2024-03-02T06:27:18;18.45;;;11.63;;
22851;SDS011;11592;45.460;9.240;2024-03-02T06:29:46;17.55;;;9.82;;
22851;SDS011;11592;45.460;9.240;2024-03-02T06:32:13;18.20;;;11.23;;
22851;SDS011;11592;45.460;9.240;2024-03-02T06:34:40;20.42;;;11.77;;
22851;SDS011;11592;45.460;9.240;2024-03-02T06:37:07;21.77;;;12.38;;
22851;SDS011;11592;45.460;9.240;2024-03-02T06:39:34;19.70;;;12.40;;
22851;SDS011;11592;45.460;9.240;2024-03-02T06:42:02;19.00;;;12.02;;
22851;SDS011;11592;45.460;9.240;2024-03-02T06:44:30;21.35;;;12.25;;
22851;SDS011;11592;45.460;9.240;2024-03-02T06:46:57;21.20;;;13.00;;
22851;SDS011;11592;45.460;9.240;2024-03-02T06:49:24;18.50;;;11.77;;
22851;SDS011;11592;45.460;9.240;2024-03-02T06:51:52;21.17;;;13.23;;
22851;SDS011;11592;45.460;9.240;2024-03-02T06:54:19;17.00;;;10.57;;
22851;SDS011;11592;45.460;9.240;2024-03-02T06:56:47;16.92;;;11.25;;
22851;SDS011;11592;45.460;9.240;2024-03-02T06:59:14;19.27;;;11.85;;
22851;SDS011;11592;45.460;9.240;2024-03-02T07:01:41;20.45;;;11.80;;
22851;SDS011;11592;45.460;9.240;2024-03-02T07:04:09;18.83;;;11.18;;
22851;SDS011;11592;45.460;9.240;2024-03-02T07:06:36;21.58;;;10.57;;
22851;SDS011;11592;45.460;9.240;2024-03-02T07:09:04;19.83;;;11.57;;
22851;SDS011;11592;45.460;9.240;2024-03-02T07:11:31;19.63;;;11.68;;
22851;SDS011;11592;45.460;9.240;2024-03-02T07:13:58;21.65;;;12.52;;
22851;SDS011;11592;45.460;9.240;2024-03-02T07:16:26;19.48;;;13.00;;
22851;SDS011;11592;45.460;9.240;2024-03-02T07:18:59;20.73;;;12.68;;
22851;SDS011;11592;45.460;9.240;2024-03-02T07:21:28;21.17;;;12.10;;
22851;SDS011;11592;45.460;9.240;2024-03-02T07:23:55;23.27;;;13.43;;
22851;SDS011;11592;45.460;9.240;2024-03-02T07:26:23;18.27;;;11.40;;
22851;SDS011;11592;45.460;9.240;2024-03-02T07:28:54;17.90;;;10.95;;
22851;SDS011;11592;45.460;9.240;2024-03-02T07:31:21;18.58;;;11.25;;
22851;SDS011;11592;45.460;9.240;2024-03-02T07:33:48;18.33;;;11.82;;
22851;SDS011;11592;45.460;9.240;2024-03-02T07:36:15;18.77;;;11.10;;
22851;SDS011;11592;45.460;9.240;2024-03-02T07:38:42;23.23;;;11.20;;
22851;SDS011;11592;45.460;9.240;2024-03-02T07:41:10;15.18;;;9.85;;
22851;SDS011;11592;45.460;9.240;2024-03-02T07:43:38;18.15;;;10.88;;
22851;SDS011;11592;45.460;9.240;2024-03-02T07:46:05;16.67;;;10.18;;
22851;SDS011;11592;45.460;9.240;2024-03-02T07:48:33;17.02;;;10.48;;
22851;SDS011;11592;45.460;9.240;2024-03-02T07:51:00;18.40;;;10.93;;
22851;SDS011;11592;45.460;9.240;2024-03-02T07:53:28;21.35;;;12.55;;
22851;SDS011;11592;45.460;9.240;2024-03-02T07:55:56;17.55;;;11.20;;
22851;SDS011;11592;45.460;9.240;2024-03-02T07:58:28;18.88;;;9.60;;
22851;SDS011;11592;45.460;9.240;2024-03-02T08:00:56;16.00;;;10.50;;
22851;SDS011;11592;45.460;9.240;2024-03-02T08:03:24;17.05;;;11.05;;
22851;SDS011;11592;45.460;9.240;2024-03-02T08:05:51;20.30;;;10.55;;
22851;SDS011;11592;45.460;9.240;2024-03-02T08:08:18;17.30;;;9.63;;
22851;SDS011;11592;45.460;9.240;2024-03-02T08:10:46;18.55;;;10.85;;
22851;SDS011;11592;45.460;9.240;2024-03-02T08:13:13;19.00;;;10.40;;
22851;SDS011;11592;45.460;9.240;2024-03-02T08:15:40;17.25;;;9.80;;
22851;SDS011;11592;45.460;9.240;2024-03-02T08:18:07;18.92;;;9.40;;
22851;SDS011;11592;45.460;9.240;2024-03-02T08:20:35;15.85;;;9.82;;
22851;SDS011;11592;45.460;9.240;2024-03-02T08:23:02;15.75;;;9.07;;
22851;SDS011;11592;45.460;9.240;2024-03-02T08:25:29;13.93;;;8.50;;
22851;SDS011;11592;45.460;9.240;2024-03-02T08:27:56;16.10;;;8.40;;
22851;SDS011;11592;45.460;9.240;2024-03-02T08:30:24;18.77;;;8.45;;
22851;SDS011;11592;45.460;9.240;2024-03-02T08:32:51;19.45;;;9.40;;
22851;SDS011;11592;45.460;9.240;2024-03-02T08:35:18;12.70;;;8.30;;
22851;SDS011;11592;45.460;9.240;2024-03-02T08:37:45;14.95;;;8.35;;
22851;SDS011;11592;45.460;9.240;2024-03-02T08:40:13;14.30;;;8.75;;
22851;SDS011;11592;45.460;9.240;2024-03-02T08:42:44;17.48;;;7.82;;
22851;SDS011;11592;45.460;9.240;2024-03-02T08:45:12;16.77;;;8.45;;
22851;SDS011;11592;45.460;9.240;2024-03-02T08:47:39;14.25;;;7.82;;
22851;SDS011;11592;45.460;9.240;2024-03-02T08:50:06;19.45;;;8.05;;
22851;SDS011;11592;45.460;9.240;2024-03-02T08:52:35;12.23;;;6.82;;
22851;SDS011;11592;45.460;9.240;2024-03-02T08:55:02;13.02;;;7.00;;
22851;SDS011;11592;45.460;9.240;2024-03-02T08:57:29;10.98;;;6.43;;
22851;SDS011;11592;45.460;9.240;2024-03-02T08:59:57;14.07;;;6.00;;
22851;SDS011;11592;45.460;9.240;2024-03-02T09:02:24;13.25;;;6.70;;
22851;SDS011;11592;45.460;9.240;2024-03-02T09:04:51;11.55;;;6.68;;
22851;SDS011;11592;45.460;9.240;2024-03-02T09:07:19;9.23;;;5.65;;
22851;SDS011;11592;45.460;9.240;2024-03-02T09:09:46;7.85;;;4.93;;
22851;SDS011;11592;45.460;9.240;2024-03-02T09:12:13;6.03;;;3.70;;
22851;SDS011;11592;45.460;9.240;2024-03-02T09:14:40;5.78;;;4.10;;
22851;SDS011;11592;45.460;9.240;2024-03-02T09:17:08;8.00;;;4.40;;
22851;SDS011;11592;45.460;9.240;2024-03-02T09:19:37;7.13;;;4.43;;
22851;SDS011;11592;45.460;9.240;2024-03-02T09:22:04;7.55;;;4.00;;
22851;SDS011;11592;45.460;9.240;2024-03-02T09:24:32;6.85;;;3.80;;
22851;SDS011;11592;45.460;9.240;2024-03-02T09:26:59;10.25;;;3.65;;
22851;SDS011;11592;45.460;9.240;2024-03-02T09:29:27;6.88;;;4.05;;
22851;SDS011;11592;45.460;9.240;2024-03-02T09:31:54;7.40;;;4.43;;
22851;SDS011;11592;45.460;9.240;2024-03-02T09:34:21;7.05;;;4.43;;
22851;SDS011;11592;45.460;9.240;2024-03-02T09:36:50;7.93;;;4.47;;
22851;SDS011;11592;45.460;9.240;2024-03-02T09:39:18;8.68;;;4.82;;
22851;SDS011;11592;45.460;9.240;2024-03-02T09:41:45;7.10;;;4.38;;
22851;SDS011;11592;45.460;9.240;2024-03-02T09:44:12;6.63;;;3.95;;
22851;SDS011;11592;45.460;9.240;2024-03-02T09:46:40;7.07;;;3.80;;
22851;SDS011;11592;45.460;9.240;2024-03-02T09:49:07;8.65;;;4.95;;
22851;SDS011;11592;45.460;9.240;2024-03-02T09:51:33;6.13;;;3.55;;
22851;SDS011;11592;45.460;9.240;2024-03-02T09:54:01;4.75;;;2.78;;
22851;SDS011;11592;45.460;9.240;2024-03-02T09:56:46;4.60;;;3.00;;
22851;SDS011;11592;45.460;9.240;2024-03-02T09:59:13;5.28;;;2.45;;
22851;SDS011;11592;45.460;9.240;2024-03-02T10:01:56;4.93;;;2.95;;
22851;SDS011;11592;45.460;9.240;2024-03-02T10:04:27;4.82;;;2.70;;
22851;SDS011;11592;45.460;9.240;2024-03-02T10:09:51;5.97;;;2.78;;
22851;SDS011;11592;45.460;9.240;2024-03-02T10:12:19;4.47;;;2.40;;
22851;SDS011;11592;45.460;9.240;2024-03-02T10:14:47;4.90;;;2.55;;
22851;SDS011;11592;45.460;9.240;2024-03-02T10:17:17;9.18;;;2.83;;
22851;SDS011;11592;45.460;9.240;2024-03-02T10:19:44;4.93;;;2.75;;
22851;SDS011;11592;45.460;9.240;2024-03-02T10:22:11;5.43;;;2.70;;
22851;SDS011;11592;45.460;9.240;2024-03-02T10:24:39;5.07;;;2.50;;
22851;SDS011;11592;45.460;9.240;2024-03-02T10:27:07;5.60;;;3.10;;
22851;SDS011;11592;45.460;9.240;2024-03-02T10:29:38;5.57;;;3.25;;
22851;SDS011;11592;45.460;9.240;2024-03-02T10:32:10;7.57;;;3.58;;
22851;SDS011;11592;45.460;9.240;2024-03-02T10:34:41;8.52;;;3.70;;
22851;SDS011;11592;45.460;9.240;2024-03-02T10:37:11;6.57;;;3.33;;
22851;SDS011;11592;45.460;9.240;2024-03-02T10:39:39;6.75;;;3.67;;
22851;SDS011;11592;45.460;9.240;2024-03-02T10:42:08;7.60;;;3.80;;
22851;SDS011;11592;45.460;9.240;2024-03-02T10:44:35;8.32;;;4.05;;
22851;SDS011;11592;45.460;9.240;2024-03-02T10:47:03;6.20;;;3.50;;
22851;SDS011;11592;45.460;9.240;2024-03-02T10:49:31;9.05;;;4.63;;
22851;SDS011;11592;45.460;9.240;2024-03-02T10:51:59;7.43;;;4.22;;
22851;SDS011;11592;45.460;9.240;2024-03-02T10:54:27;12.73;;;5.00;;
22851;SDS011;11592;45.460;9.240;2024-03-02T10:57:03;10.30;;;4.50;;
22851;SDS011;11592;45.460;9.240;2024-03-02T11:02:00;9.50;;;4.95;;
22851;SDS011;11592;45.460;9.240;2024-03-02T11:04:31;10.57;;;4.93;;
22851;SDS011;11592;45.460;9.240;2024-03-02T11:07:04;8.02;;;5.18;;
22851;SDS011;11592;45.460;9.240;2024-03-02T11:09:33;10.32;;;4.75;;
22851;SDS011;11592;45.460;9.240;2024-03-02T11:12:06;9.20;;;5.30;;
22851;SDS011;11592;45.460;9.240;2024-03-02T11:14:37;11.45;;;5.13;;
22851;SDS011;11592;45.460;9.240;2024-03-02T11:17:04;10.15;;;5.25;;
22851;SDS011;11592;45.460;9.240;2024-03-02T11:19:32;8.88;;;5.00;;
22851;SDS011;11592;45.460;9.240;2024-03-02T11:22:01;11.02;;;5.30;;
22851;SDS011;11592;45.460;9.240;2024-03-02T11:24:30;9.43;;;4.70;;
22851;SDS011;11592;45.460;9.240;2024-03-02T11:27:04;8.43;;;5.00;;
22851;SDS011;11592;45.460;9.240;2024-03-02T11:32:16;7.55;;;4.60;;
22851;SDS011;11592;45.460;9.240;2024-03-02T11:34:52;7.90;;;4.97;;
22851;SDS011;11592;45.460;9.240;2024-03-02T11:37:19;6.78;;;4.43;;
22851;SDS011;11592;45.460;9.240;2024-03-02T11:39:48;7.20;;;4.60;;
22851;SDS011;11592;45.460;9.240;2024-03-02T11:42:16;7.05;;;4.72;;
22851;SDS011;11592;45.460;9.240;2024-03-02T11:44:45;10.60;;;5.55;;
22851;SDS011;11592;45.460;9.240;2024-03-02T11:47:13;8.07;;;4.53;;
22851;SDS011;11592;45.460;9.240;2024-03-02T11:49:42;7.82;;;4.80;;
22851;SDS011;11592;45.460;9.240;2024-03-02T11:52:14;10.40;;;5.00;;
22851;SDS011;11592;45.460;9.240;2024-03-02T11:54:44;8.95;;;5.60;;
22851;SDS011;11592;45.460;9.240;2024-03-02T11:57:18;8.20;;;5.43;;
22851;SDS011;11592;45.460;9.240;2024-03-02T11:59:47;7.32;;;4.72;;
22851;SDS011;11592;45.460;9.240;2024-03-02T12:02:17;8.38;;;5.25;;
22851;SDS011;11592;45.460;9.240;2024-03-02T12:04:48;8.70;;;6.30;;
22851;SDS011;11592;45.460;9.240;2024-03-02T12:07:22;9.40;;;5.80;;
22851;SDS011;11592;45.460;9.240;2024-03-02T12:09:59;8.93;;;5.72;;
22851;SDS011;11592;45.460;9.240;2024-03-02T12:12:32;9.85;;;5.97;;
22851;SDS011;11592;45.460;9.240;2024-03-02T12:14:58;12.75;;;6.85;;
22851;SDS011;11592;45.460;9.240;2024-03-02T12:17:27;10.13;;;6.60;;
22851;SDS011;11592;45.460;9.240;2024-03-02T12:19:54;13.57;;;7.90;;
22851;SDS011;11592;45.460;9.240;2024-03-02T12:22:21;11.90;;;7.40;;
22851;SDS011;11592;45.460;9.240;2024-03-02T12:24:48;12.15;;;7.28;;
22851;SDS011;11592;45.460;9.240;2024-03-02T12:27:16;12.18;;;7.50;;
22851;SDS011;11592;45.460;9.240;2024-03-02T12:29:45;12.88;;;7.60;;
22851;SDS011;11592;45.460;9.240;2024-03-02T12:32:12;11.25;;;7.68;;
22851;SDS011;11592;45.460;9.240;2024-03-02T12:34:39;11.75;;;8.00;;
22851;SDS011;11592;45.460;9.240;2024-03-02T12:37:06;12.80;;;8.48;;
22851;SDS011;11592;45.460;9.240;2024-03-02T12:39:34;11.48;;;7.20;;
22851;SDS011;11592;45.460;9.240;2024-03-02T12:42:02;11.43;;;7.07;;
22851;SDS011;11592;45.460;9.240;2024-03-02T12:44:34;12.73;;;7.55;;
22851;SDS011;11592;45.460;9.240;2024-03-02T12:47:01;10.38;;;6.55;;
22851;SDS011;11592;45.460;9.240;2024-03-02T12:49:29;10.77;;;6.95;;
22851;SDS011;11592;45.460;9.240;2024-03-02T12:51:58;12.13;;;7.30;;
22851;SDS011;11592;45.460;9.240;2024-03-02T12:54:26;9.82;;;6.60;;
22851;SDS011;11592;45.460;9.240;2024-03-02T12:56:53;11.70;;;7.03;;
22851;SDS011;11592;45.460;9.240;2024-03-02T12:59:21;11.48;;;7.60;;
22851;SDS011;11592;45.460;9.240;2024-03-02T13:01:53;12.57;;;7.50;;
22851;SDS011;11592;45.460;9.240;2024-03-02T13:04:27;12.68;;;7.43;;
22851;SDS011;11592;45.460;9.240;2024-03-02T13:06:55;12.55;;;8.18;;
22851;SDS011;11592;45.460;9.240;2024-03-02T13:09:24;11.25;;;7.38;;
22851;SDS011;11592;45.460;9.240;2024-03-02T13:11:51;9.85;;;6.75;;
22851;SDS011;11592;45.460;9.240;2024-03-02T13:14:21;11.73;;;7.00;;
22851;SDS011;11592;45.460;9.240;2024-03-02T13:16:48;11.80;;;7.03;;
22851;SDS011;11592;45.460;9.240;2024-03-02T13:19:18;12.02;;;6.45;;
22851;SDS011;11592;45.460;9.240;2024-03-02T13:21:46;11.90;;;6.95;;
22851;SDS011;11592;45.460;9.240;2024-03-02T13:24:13;10.10;;;6.18;;
22851;SDS011;11592;45.460;9.240;2024-03-02T13:26:40;10.98;;;6.95;;
22851;SDS011;11592;45.460;9.240;2024-03-02T13:29:08;10.65;;;7.32;;
22851;SDS011;11592;45.460;9.240;2024-03-02T13:31:35;12.27;;;7.70;;
22851;SDS011;11592;45.460;9.240;2024-03-02T13:34:02;12.65;;;7.55;;
22851;SDS011;11592;45.460;9.240;2024-03-02T13:36:29;15.02;;;8.00;;
22851;SDS011;11592;45.460;9.240;2024-03-02T13:38:57;12.40;;;7.72;;
22851;SDS011;11592;45.460;9.240;2024-03-02T13:41:24;13.07;;;8.15;;
22851;SDS011;11592;45.460;9.240;2024-03-02T13:43:51;12.13;;;8.00;;
22851;SDS011;11592;45.460;9.240;2024-03-02T13:46:19;13.68;;;7.30;;
22851;SDS011;11592;45.460;9.240;2024-03-02T13:48:47;11.95;;;8.32;;
22851;SDS011;11592;45.460;9.240;2024-03-02T13:51:15;14.45;;;8.80;;
22851;SDS011;11592;45.460;9.240;2024-03-02T13:53:42;13.98;;;9.18;;
22851;SDS011;11592;45.460;9.240;2024-03-02T13:56:10;14.23;;;8.55;;
22851;SDS011;11592;45.460;9.240;2024-03-02T13:58:38;11.93;;;7.78;;
22851;SDS011;11592;45.460;9.240;2024-03-02T14:01:05;14.93;;;8.80;;
22851;SDS011;11592;45.460;9.240;2024-03-02T14:03:32;13.38;;;8.35;;
22851;SDS011;11592;45.460;9.240;2024-03-02T14:06:00;13.88;;;8.90;;
22851;SDS011;11592;45.460;9.240;2024-03-02T14:08:27;11.55;;;7.93;;
22851;SDS011;11592;45.460;9.240;2024-03-02T14:10:54;13.25;;;8.45;;
22851;SDS011;11592;45.460;9.240;2024-03-02T14:13:24;12.35;;;7.72;;
22851;SDS011;11592;45.460;9.240;2024-03-02T14:15:52;14.00;;;8.95;;
22851;SDS011;11592;45.460;9.240;2024-03-02T14:18:19;15.32;;;9.60;;
22851;SDS011;11592;45.460;9.240;2024-03-02T14:20:47;12.30;;;9.32;;
22851;SDS011;11592;45.460;9.240;2024-03-02T14:23:19;13.07;;;8.70;;
22851;SDS011;11592;45.460;9.240;2024-03-02T14:25:47;14.48;;;9.57;;
22851;SDS011;11592;45.460;9.240;2024-03-02T14:28:14;14.60;;;9.13;;
22851;SDS011;11592;45.460;9.240;2024-03-02T14:31:02;14.95;;;9.93;;
22851;SDS011;11592;45.460;9.240;2024-03-02T14:33:29;17.90;;;9.45;;
22851;SDS011;11592;45.460;9.240;2024-03-02T14:35:57;15.60;;;9.90;;
22851;SDS011;11592;45.460;9.240;2024-03-02T14:38:24;14.32;;;9.48;;
22851;SDS011;11592;45.460;9.240;2024-03-02T14:40:51;14.30;;;10.23;;
22851;SDS011;11592;45.460;9.240;2024-03-02T14:43:19;17.30;;;10.40;;
22851;SDS011;11592;45.460;9.240;2024-03-02T14:45:46;16.23;;;10.23;;
22851;SDS011;11592;45.460;9.240;2024-03-02T14:48:14;15.30;;;10.27;;
22851;SDS011;11592;45.460;9.240;2024-03-02T14:50:41;14.40;;;8.98;;